sensor_id;sensor_type;location;lat;lon;timestamp;P1;durP1;ratioP1;P2;durP2;ratioP2
57325;SDS011;43161;50.950;18.224;2023-07-13T00:01:50;16.20;;;7.90;;
57325;SDS011;43161;50.950;18.224;2023-07-13T00:04:16;16.80;;;8.10;;
57325;SDS011;43161;50.950;18.224;2023-07-13T00:06:44;18.20;;;8.00;;
57325;SDS011;43161;50.950;18.224;2023-07-13T00:09:13;16.10;;;8.50;;
57325;SDS011;43161;50.950;18.224;2023-07-13T00:11:40;16.70;;;8.40;;
57325;SDS011;43161;50.950;18.224;2023-07-13T00:14:07;17.10;;;8.10;;
57325;SDS011;43161;50.950;18.224;2023-07-13T00:16:34;20.90;;;8.60;;
57325;SDS011;43161;50.950;18.224;2023-07-13T00:19:01;14.30;;;7.60;;
57325;SDS011;43161;50.950;18.224;2023-07-13T00:21:27;14.20;;;7.70;;
57325;SDS011;43161;50.950;18.224;2023-07-13T00:23:53;14.60;;;8.10;;
57325;SDS011;43161;50.950;18.224;2023-07-13T00:26:18;17.20;;;7.30;;
57325;SDS011;43161;50.950;18.224;2023-07-13T00:28:44;14.90;;;7.70;;
57325;SDS011;43161;50.950;18.224;2023-07-13T00:31:11;13.40;;;7.70;;
57325;SDS011;43161;50.950;18.224;2023-07-13T00:33:37;16.80;;;8.00;;
57325;SDS011;43161;50.950;18.224;2023-07-13T00:36:04;17.80;;;7.60;;
57325;SDS011;43161;50.950;18.224;2023-07-13T00:38:30;16.00;;;8.00;;
57325;SDS011;43161;50.950;18.224;2023-07-13T00:40:55;18.90;;;7.40;;
57325;SDS011;43161;50.950;18.224;2023-07-13T00:43:21;19.80;;;7.80;;
57325;SDS011;43161;50.950;18.224;2023-07-13T00:48:15;16.10;;;6.90;;
57325;SDS011;43161;50.950;18.224;2023-07-13T00:50:46;18.80;;;7.30;;
57325;SDS011;43161;50.950;18.224;2023-07-13T00:53:16;16.80;;;7.50;;
57325;SDS011;43161;50.950;18.224;2023-07-13T00:55:43;15.20;;;7.30;;
57325;SDS011;43161;50.950;18.224;2023-07-13T00:58:09;17.80;;;7.70;;
57325;SDS011;43161;50.950;18.224;2023-07-13T01:00:35;15.40;;;6.90;;
57325;SDS011;43161;50.950;18.224;2023-07-13T01:03:02;15.50;;;7.10;;
57325;SDS011;43161;50.950;18.224;2023-07-13T01:05:30;12.90;;;6.40;;
57325;SDS011;43161;50.950;18.224;2023-07-13T01:07:57;14.00;;;6.30;;
57325;SDS011;43161;50.950;18.224;2023-07-13T01:10:25;13.70;;;5.80;;
57325;SDS011;43161;50.950;18.224;2023-07-13T01:12:51;17.80;;;7.30;;
57325;SDS011;43161;50.950;18.224;2023-07-13T01:18:03;16.00;;;6.40;;
57325;SDS011;43161;50.950;18.224;2023-07-13T01:20:30;14.40;;;7.00;;
57325;SDS011;43161;50.950;18.224;2023-07-13T01:23:08;15.20;;;6.60;;
57325;SDS011;43161;50.950;18.224;2023-07-13T01:25:35;18.50;;;7.20;;
57325;SDS011;43161;50.950;18.224;2023-07-13T01:28:02;16.80;;;6.70;;
57325;SDS011;43161;50.950;18.224;2023-07-13T01:30:32;15.40;;;6.90;;
57325;SDS011;43161;50.950;18.224;2023-07-13T01:32:58;16.60;;;6.80;;
57325;SDS011;43161;50.950;18.224;2023-07-13T01:35:24;15.10;;;6.40;;
57325;SDS011;43161;50.950;18.224;2023-07-13T01:37:52;15.70;;;6.40;;
57325;SDS011;43161;50.950;18.224;2023-07-13T01:40:19;13.00;;;6.20;;
57325;SDS011;43161;50.950;18.224;2023-07-13T01:42:45;15.60;;;6.40;;
57325;SDS011;43161;50.950;18.224;2023-07-13T01:45:11;14.30;;;7.40;;
57325;SDS011;43161;50.950;18.224;2023-07-13T01:47:36;13.50;;;7.20;;
57325;SDS011;43161;50.950;18.224;2023-07-13T01:50:02;13.90;;;7.60;;
57325;SDS011;43161;50.950;18.224;2023-07-13T01:52:28;16.00;;;7.90;;
57325;SDS011;43161;50.950;18.224;2023-07-13T01:54:54;17.00;;;7.50;;
57325;SDS011;43161;50.950;18.224;2023-07-13T01:57:20;16.10;;;7.70;;
57325;SDS011;43161;50.950;18.224;2023-07-13T01:59:45;17.30;;;7.90;;
57325;SDS011;43161;50.950;18.224;2023-07-13T02:02:11;14.90;;;7.40;;
57325;SDS011;43161;50.950;18.224;2023-07-13T02:04:37;18.40;;;7.80;;
57325;SDS011;43161;50.950;18.224;2023-07-13T02:07:03;15.80;;;7.70;;
57325;SDS011;43161;50.950;18.224;2023-07-13T02:09:29;21.20;;;8.70;;
57325;SDS011;43161;50.950;18.224;2023-07-13T02:11:54;16.60;;;8.30;;
57325;SDS011;43161;50.950;18.224;2023-07-13T02:14:20;16.90;;;8.50;;
57325;SDS011;43161;50.950;18.224;2023-07-13T02:16:46;17.40;;;8.00;;
57325;SDS011;43161;50.950;18.224;2023-07-13T02:19:14;19.50;;;7.90;;
57325;SDS011;43161;50.950;18.224;2023-07-13T02:21:40;18.50;;;7.90;;
57325;SDS011;43161;50.950;18.224;2023-07-13T02:24:05;20.60;;;8.40;;
57325;SDS011;43161;50.950;18.224;2023-07-13T02:26:31;16.70;;;7.80;;
57325;SDS011;43161;50.950;18.224;2023-07-13T02:28:56;17.30;;;8.20;;
57325;SDS011;43161;50.950;18.224;2023-07-13T02:31:22;19.80;;;8.30;;
57325;SDS011;43161;50.950;18.224;2023-07-13T02:33:48;22.40;;;8.10;;
57325;SDS011;43161;50.950;18.224;2023-07-13T02:36:14;17.90;;;7.00;;
57325;SDS011;43161;50.950;18.224;2023-07-13T02:38:41;22.00;;;6.80;;
57325;SDS011;43161;50.950;18.224;2023-07-13T02:41:08;19.00;;;7.60;;
57325;SDS011;43161;50.950;18.224;2023-07-13T02:43:34;19.40;;;7.90;;
57325;SDS011;43161;50.950;18.224;2023-07-13T02:46:01;20.40;;;7.40;;
57325;SDS011;43161;50.950;18.224;2023-07-13T02:48:32;20.90;;;7.60;;
57325;SDS011;43161;50.950;18.224;2023-07-13T02:50:59;23.70;;;7.70;;
57325;SDS011;43161;50.950;18.224;2023-07-13T02:53:24;16.10;;;7.20;;
57325;SDS011;43161;50.950;18.224;2023-07-13T02:55:50;16.50;;;6.90;;
57325;SDS011;43161;50.950;18.224;2023-07-13T02:58:16;16.70;;;6.60;;
57325;SDS011;43161;50.950;18.224;2023-07-13T03:00:44;22.90;;;6.50;;
57325;SDS011;43161;50.950;18.224;2023-07-13T03:03:12;18.40;;;6.60;;
57325;SDS011;43161;50.950;18.224;2023-07-13T03:05:40;19.50;;;7.30;;
57325;SDS011;43161;50.950;18.224;2023-07-13T03:08:07;20.20;;;7.30;;
57325;SDS011;43161;50.950;18.224;2023-07-13T03:10:36;16.20;;;6.00;;
57325;SDS011;43161;50.950;18.224;2023-07-13T03:13:02;16.90;;;7.20;;
57325;SDS011;43161;50.950;18.224;2023-07-13T03:15:28;19.50;;;7.40;;
57325;SDS011;43161;50.950;18.224;2023-07-13T03:17:54;17.30;;;7.30;;
57325;SDS011;43161;50.950;18.224;2023-07-13T03:20:20;17.30;;;7.10;;
57325;SDS011;43161;50.950;18.224;2023-07-13T03:22:45;27.80;;;8.20;;
57325;SDS011;43161;50.950;18.224;2023-07-13T03:25:11;15.50;;;6.80;;
57325;SDS011;43161;50.950;18.224;2023-07-13T03:27:37;18.20;;;7.90;;
57325;SDS011;43161;50.950;18.224;2023-07-13T03:30:04;18.30;;;7.70;;
57325;SDS011;43161;50.950;18.224;2023-07-13T03:32:30;13.80;;;6.50;;
57325;SDS011;43161;50.950;18.224;2023-07-13T03:34:56;18.30;;;8.10;;
57325;SDS011;43161;50.950;18.224;2023-07-13T03:37:22;19.00;;;8.00;;
57325;SDS011;43161;50.950;18.224;2023-07-13T03:39:49;15.80;;;7.40;;
57325;SDS011;43161;50.950;18.224;2023-07-13T03:42:14;13.50;;;7.60;;
57325;SDS011;43161;50.950;18.224;2023-07-13T03:44:40;16.40;;;7.20;;
57325;SDS011;43161;50.950;18.224;2023-07-13T03:47:07;14.80;;;6.90;;
57325;SDS011;43161;50.950;18.224;2023-07-13T03:49:34;15.50;;;7.40;;
57325;SDS011;43161;50.950;18.224;2023-07-13T03:52:00;14.80;;;7.40;;
57325;SDS011;43161;50.950;18.224;2023-07-13T03:54:26;22.70;;;7.70;;
57325;SDS011;43161;50.950;18.224;2023-07-13T03:56:52;16.10;;;7.80;;
57325;SDS011;43161;50.950;18.224;2023-07-13T03:59:17;14.80;;;7.90;;
57325;SDS011;43161;50.950;18.224;2023-07-13T04:01:43;20.70;;;7.70;;
57325;SDS011;43161;50.950;18.224;2023-07-13T04:04:09;15.80;;;7.70;;
57325;SDS011;43161;50.950;18.224;2023-07-13T04:06:35;17.90;;;7.50;;
57325;SDS011;43161;50.950;18.224;2023-07-13T04:09:01;16.90;;;7.30;;
57325;SDS011;43161;50.950;18.224;2023-07-13T04:11:30;18.10;;;7.70;;
57325;SDS011;43161;50.950;18.224;2023-07-13T04:13:57;17.50;;;8.40;;
57325;SDS011;43161;50.950;18.224;2023-07-13T04:16:23;19.60;;;8.50;;
57325;SDS011;43161;50.950;18.224;2023-07-13T04:18:49;17.30;;;8.10;;
57325;SDS011;43161;50.950;18.224;2023-07-13T04:21:16;16.50;;;8.60;;
57325;SDS011;43161;50.950;18.224;2023-07-13T04:23:42;18.50;;;9.00;;
57325;SDS011;43161;50.950;18.224;2023-07-13T04:26:08;18.20;;;8.60;;
57325;SDS011;43161;50.950;18.224;2023-07-13T04:28:34;20.40;;;8.90;;
57325;SDS011;43161;50.950;18.224;2023-07-13T04:30:59;15.30;;;8.30;;
57325;SDS011;43161;50.950;18.224;2023-07-13T04:33:26;17.70;;;7.60;;
57325;SDS011;43161;50.950;18.224;2023-07-13T04:35:53;17.30;;;7.90;;
57325;SDS011;43161;50.950;18.224;2023-07-13T04:38:28;17.80;;;7.40;;
57325;SDS011;43161;50.950;18.224;2023-07-13T04:41:05;20.40;;;7.30;;
57325;SDS011;43161;50.950;18.224;2023-07-13T04:43:32;14.60;;;7.10;;
57325;SDS011;43161;50.950;18.224;2023-07-13T04:48:42;18.60;;;7.70;;
57325;SDS011;43161;50.950;18.224;2023-07-13T04:51:08;14.90;;;6.60;;
57325;SDS011;43161;50.950;18.224;2023-07-13T04:53:34;16.40;;;7.10;;
57325;SDS011;43161;50.950;18.224;2023-07-13T04:56:00;16.20;;;7.70;;
57325;SDS011;43161;50.950;18.224;2023-07-13T04:58:26;14.70;;;7.60;;
57325;SDS011;43161;50.950;18.224;2023-07-13T05:00:52;16.20;;;8.10;;
57325;SDS011;43161;50.950;18.224;2023-07-13T05:03:18;22.00;;;8.40;;
57325;SDS011;43161;50.950;18.224;2023-07-13T05:05:54;17.40;;;9.00;;
57325;SDS011;43161;50.950;18.224;2023-07-13T05:08:21;17.00;;;9.40;;
57325;SDS011;43161;50.950;18.224;2023-07-13T05:10:46;17.90;;;9.40;;
57325;SDS011;43161;50.950;18.224;2023-07-13T05:13:12;15.40;;;8.70;;
57325;SDS011;43161;50.950;18.224;2023-07-13T05:15:37;15.00;;;8.90;;
57325;SDS011;43161;50.950;18.224;2023-07-13T05:18:03;18.10;;;8.40;;
57325;SDS011;43161;50.950;18.224;2023-07-13T05:20:29;16.30;;;8.70;;
57325;SDS011;43161;50.950;18.224;2023-07-13T05:22:55;17.20;;;9.60;;
57325;SDS011;43161;50.950;18.224;2023-07-13T05:25:20;20.70;;;9.70;;
57325;SDS011;43161;50.950;18.224;2023-07-13T05:27:47;17.60;;;8.90;;
57325;SDS011;43161;50.950;18.224;2023-07-13T05:30:13;16.70;;;9.30;;
57325;SDS011;43161;50.950;18.224;2023-07-13T05:32:38;14.50;;;8.30;;
57325;SDS011;43161;50.950;18.224;2023-07-13T05:35:04;15.60;;;9.00;;
57325;SDS011;43161;50.950;18.224;2023-07-13T05:37:31;17.10;;;8.60;;
57325;SDS011;43161;50.950;18.224;2023-07-13T05:39:56;15.10;;;9.30;;
57325;SDS011;43161;50.950;18.224;2023-07-13T05:42:22;21.60;;;10.30;;
57325;SDS011;43161;50.950;18.224;2023-07-13T05:44:47;19.60;;;10.10;;
57325;SDS011;43161;50.950;18.224;2023-07-13T05:47:13;15.60;;;9.60;;
57325;SDS011;43161;50.950;18.224;2023-07-13T05:49:40;17.60;;;10.90;;
57325;SDS011;43161;50.950;18.224;2023-07-13T05:52:06;17.40;;;10.30;;
57325;SDS011;43161;50.950;18.224;2023-07-13T05:54:32;17.10;;;9.60;;
57325;SDS011;43161;50.950;18.224;2023-07-13T05:56:58;16.30;;;9.80;;
57325;SDS011;43161;50.950;18.224;2023-07-13T05:59:24;17.90;;;10.20;;
57325;SDS011;43161;50.950;18.224;2023-07-13T06:01:50;17.20;;;9.30;;
57325;SDS011;43161;50.950;18.224;2023-07-13T06:04:17;16.40;;;9.70;;
57325;SDS011;43161;50.950;18.224;2023-07-13T06:06:48;17.90;;;10.10;;
57325;SDS011;43161;50.950;18.224;2023-07-13T06:09:14;17.60;;;10.20;;
57325;SDS011;43161;50.950;18.224;2023-07-13T06:11:40;17.30;;;10.40;;
57325;SDS011;43161;50.950;18.224;2023-07-13T06:14:05;14.70;;;9.50;;
57325;SDS011;43161;50.950;18.224;2023-07-13T06:16:31;14.20;;;7.60;;
57325;SDS011;43161;50.950;18.224;2023-07-13T06:18:56;15.50;;;7.50;;
57325;SDS011;43161;50.950;18.224;2023-07-13T06:21:22;15.90;;;6.90;;
57325;SDS011;43161;50.950;18.224;2023-07-13T06:23:50;13.20;;;7.10;;
57325;SDS011;43161;50.950;18.224;2023-07-13T06:26:16;13.40;;;6.30;;
57325;SDS011;43161;50.950;18.224;2023-07-13T06:28:43;13.60;;;5.10;;
57325;SDS011;43161;50.950;18.224;2023-07-13T06:31:09;13.80;;;4.90;;
57325;SDS011;43161;50.950;18.224;2023-07-13T06:33:37;10.30;;;3.50;;
57325;SDS011;43161;50.950;18.224;2023-07-13T06:36:03;10.60;;;3.80;;
57325;SDS011;43161;50.950;18.224;2023-07-13T06:38:30;9.80;;;3.20;;
57325;SDS011;43161;50.950;18.224;2023-07-13T06:40:56;12.60;;;3.70;;
57325;SDS011;43161;50.950;18.224;2023-07-13T06:43:22;8.90;;;3.30;;
57325;SDS011;43161;50.950;18.224;2023-07-13T06:45:50;11.90;;;3.70;;
57325;SDS011;43161;50.950;18.224;2023-07-13T06:48:17;7.90;;;3.10;;
57325;SDS011;43161;50.950;18.224;2023-07-13T06:50:43;9.80;;;2.90;;
57325;SDS011;43161;50.950;18.224;2023-07-13T06:53:09;7.40;;;2.50;;
57325;SDS011;43161;50.950;18.224;2023-07-13T06:55:36;17.20;;;3.30;;
57325;SDS011;43161;50.950;18.224;2023-07-13T06:58:01;7.30;;;2.20;;
57325;SDS011;43161;50.950;18.224;2023-07-13T07:00:27;7.70;;;1.90;;
57325;SDS011;43161;50.950;18.224;2023-07-13T07:02:52;7.70;;;2.20;;
57325;SDS011;43161;50.950;18.224;2023-07-13T07:05:18;7.20;;;1.70;;
57325;SDS011;43161;50.950;18.224;2023-07-13T07:07:46;6.00;;;1.70;;
57325;SDS011;43161;50.950;18.224;2023-07-13T07:10:15;6.80;;;2.00;;
57325;SDS011;43161;50.950;18.224;2023-07-13T07:12:41;7.10;;;1.90;;
57325;SDS011;43161;50.950;18.224;2023-07-13T07:15:07;8.20;;;1.70;;
57325;SDS011;43161;50.950;18.224;2023-07-13T07:17:32;7.20;;;1.80;;
57325;SDS011;43161;50.950;18.224;2023-07-13T07:19:58;7.00;;;1.80;;
57325;SDS011;43161;50.950;18.224;2023-07-13T07:22:24;6.60;;;1.90;;
57325;SDS011;43161;50.950;18.224;2023-07-13T07:24:52;7.50;;;1.70;;
57325;SDS011;43161;50.950;18.224;2023-07-13T07:27:19;7.50;;;1.80;;
57325;SDS011;43161;50.950;18.224;2023-07-13T07:29:45;4.90;;;1.60;;
57325;SDS011;43161;50.950;18.224;2023-07-13T07:32:10;7.00;;;1.60;;
57325;SDS011;43161;50.950;18.224;2023-07-13T07:34:36;5.90;;;1.80;;
57325;SDS011;43161;50.950;18.224;2023-07-13T07:37:02;5.80;;;1.60;;
57325;SDS011;43161;50.950;18.224;2023-07-13T07:39:28;6.10;;;1.80;;
57325;SDS011;43161;50.950;18.224;2023-07-13T07:41:54;7.20;;;1.50;;
57325;SDS011;43161;50.950;18.224;2023-07-13T07:44:20;6.90;;;1.70;;
57325;SDS011;43161;50.950;18.224;2023-07-13T07:46:45;6.10;;;1.50;;
57325;SDS011;43161;50.950;18.224;2023-07-13T07:49:11;7.30;;;1.90;;
57325;SDS011;43161;50.950;18.224;2023-07-13T07:51:37;7.80;;;1.70;;
57325;SDS011;43161;50.950;18.224;2023-07-13T07:54:03;6.60;;;1.60;;
57325;SDS011;43161;50.950;18.224;2023-07-13T07:56:31;4.90;;;1.30;;
57325;SDS011;43161;50.950;18.224;2023-07-13T07:58:57;6.00;;;1.50;;
57325;SDS011;43161;50.950;18.224;2023-07-13T08:01:23;5.70;;;1.40;;
57325;SDS011;43161;50.950;18.224;2023-07-13T08:03:49;5.50;;;1.20;;
57325;SDS011;43161;50.950;18.224;2023-07-13T08:06:14;6.50;;;1.40;;
57325;SDS011;43161;50.950;18.224;2023-07-13T08:08:41;6.80;;;1.50;;
57325;SDS011;43161;50.950;18.224;2023-07-13T08:11:07;5.30;;;1.40;;
57325;SDS011;43161;50.950;18.224;2023-07-13T08:13:34;6.20;;;1.70;;
57325;SDS011;43161;50.950;18.224;2023-07-13T08:16:00;8.50;;;1.70;;
57325;SDS011;43161;50.950;18.224;2023-07-13T08:18:26;8.90;;;2.00;;
57325;SDS011;43161;50.950;18.224;2023-07-13T08:20:53;8.00;;;2.20;;
57325;SDS011;43161;50.950;18.224;2023-07-13T08:23:22;9.40;;;3.60;;
57325;SDS011;43161;50.950;18.224;2023-07-13T08:25:51;10.50;;;2.50;;
57325;SDS011;43161;50.950;18.224;2023-07-13T08:28:19;11.90;;;2.30;;
57325;SDS011;43161;50.950;18.224;2023-07-13T08:30:45;8.50;;;2.20;;
57325;SDS011;43161;50.950;18.224;2023-07-13T08:33:16;9.10;;;2.30;;
57325;SDS011;43161;50.950;18.224;2023-07-13T08:35:45;11.70;;;4.10;;
57325;SDS011;43161;50.950;18.224;2023-07-13T08:38:12;10.50;;;2.90;;
57325;SDS011;43161;50.950;18.224;2023-07-13T08:40:38;10.70;;;4.20;;
57325;SDS011;43161;50.950;18.224;2023-07-13T08:43:04;12.20;;;4.20;;
57325;SDS011;43161;50.950;18.224;2023-07-13T08:53:48;10.10;;;2.80;;
57325;SDS011;43161;50.950;18.224;2023-07-13T08:56:18;9.90;;;2.90;;
57325;SDS011;43161;50.950;18.224;2023-07-13T08:58:46;8.20;;;2.90;;
57325;SDS011;43161;50.950;18.224;2023-07-13T09:04:05;9.70;;;2.80;;
57325;SDS011;43161;50.950;18.224;2023-07-13T09:14:53;9.60;;;2.50;;
57325;SDS011;43161;50.950;18.224;2023-07-13T09:19:49;8.30;;;2.10;;
57325;SDS011;43161;50.950;18.224;2023-07-13T09:22:20;9.30;;;2.40;;
57325;SDS011;43161;50.950;18.224;2023-07-13T09:27:21;7.60;;;2.10;;
57325;SDS011;43161;50.950;18.224;2023-07-13T09:30:15;10.20;;;2.20;;
57325;SDS011;43161;50.950;18.224;2023-07-13T09:32:55;9.90;;;2.70;;
57325;SDS011;43161;50.950;18.224;2023-07-13T09:35:24;11.50;;;3.00;;
57325;SDS011;43161;50.950;18.224;2023-07-13T09:43:06;9.00;;;2.90;;
57325;SDS011;43161;50.950;18.224;2023-07-13T09:45:36;9.80;;;2.90;;
57325;SDS011;43161;50.950;18.224;2023-07-13T09:48:06;8.60;;;2.70;;
57325;SDS011;43161;50.950;18.224;2023-07-13T09:50:35;11.10;;;2.60;;
57325;SDS011;43161;50.950;18.224;2023-07-13T09:53:02;8.90;;;2.40;;
57325;SDS011;43161;50.950;18.224;2023-07-13T09:55:32;7.90;;;2.30;;
57325;SDS011;43161;50.950;18.224;2023-07-13T09:58:19;8.60;;;2.40;;
57325;SDS011;43161;50.950;18.224;2023-07-13T10:00:54;7.00;;;2.10;;
57325;SDS011;43161;50.950;18.224;2023-07-13T10:03:23;8.10;;;2.40;;
57325;SDS011;43161;50.950;18.224;2023-07-13T10:05:51;7.50;;;2.30;;
57325;SDS011;43161;50.950;18.224;2023-07-13T10:08:21;7.80;;;2.30;;
57325;SDS011;43161;50.950;18.224;2023-07-13T10:13:54;6.50;;;2.00;;
57325;SDS011;43161;50.950;18.224;2023-07-13T10:16:24;12.60;;;2.50;;
57325;SDS011;43161;50.950;18.224;2023-07-13T10:18:56;7.20;;;1.90;;
57325;SDS011;43161;50.950;18.224;2023-07-13T10:21:26;8.10;;;2.20;;
57325;SDS011;43161;50.950;18.224;2023-07-13T10:24:10;6.80;;;1.80;;
57325;SDS011;43161;50.950;18.224;2023-07-13T10:26:48;7.60;;;1.80;;
57325;SDS011;43161;50.950;18.224;2023-07-13T10:29:18;10.40;;;2.10;;
57325;SDS011;43161;50.950;18.224;2023-07-13T10:31:45;6.90;;;1.90;;
57325;SDS011;43161;50.950;18.224;2023-07-13T10:34:11;5.20;;;1.70;;
57325;SDS011;43161;50.950;18.224;2023-07-13T10:39:04;9.10;;;2.00;;
57325;SDS011;43161;50.950;18.224;2023-07-13T10:41:32;8.50;;;1.90;;
57325;SDS011;43161;50.950;18.224;2023-07-13T10:44:00;7.70;;;1.90;;
57325;SDS011;43161;50.950;18.224;2023-07-13T10:46:27;7.30;;;1.80;;
57325;SDS011;43161;50.950;18.224;2023-07-13T10:48:55;8.30;;;2.20;;
57325;SDS011;43161;50.950;18.224;2023-07-13T10:51:25;6.00;;;2.00;;
57325;SDS011;43161;50.950;18.224;2023-07-13T10:56:38;7.20;;;2.00;;
57325;SDS011;43161;50.950;18.224;2023-07-13T11:01:57;6.10;;;1.80;;
57325;SDS011;43161;50.950;18.224;2023-07-13T11:04:26;5.60;;;1.60;;
57325;SDS011;43161;50.950;18.224;2023-07-13T11:06:58;7.20;;;1.90;;
57325;SDS011;43161;50.950;18.224;2023-07-13T11:09:33;6.20;;;1.90;;
57325;SDS011;43161;50.950;18.224;2023-07-13T11:12:03;8.20;;;1.90;;
57325;SDS011;43161;50.950;18.224;2023-07-13T11:14:37;7.30;;;1.80;;
57325;SDS011;43161;50.950;18.224;2023-07-13T11:22:44;8.40;;;1.80;;
57325;SDS011;43161;50.950;18.224;2023-07-13T11:30:38;7.70;;;2.20;;
57325;SDS011;43161;50.950;18.224;2023-07-13T11:38:51;6.10;;;1.80;;
57325;SDS011;43161;50.950;18.224;2023-07-13T11:41:25;9.60;;;1.70;;
57325;SDS011;43161;50.950;18.224;2023-07-13T11:43:54;4.90;;;1.80;;
57325;SDS011;43161;50.950;18.224;2023-07-13T11:48:53;8.70;;;2.20;;
57325;SDS011;43161;50.950;18.224;2023-07-13T11:53:49;7.50;;;1.80;;
57325;SDS011;43161;50.950;18.224;2023-07-13T11:56:16;5.90;;;1.80;;
57325;SDS011;43161;50.950;18.224;2023-07-13T11:58:42;6.70;;;2.00;;
57325;SDS011;43161;50.950;18.224;2023-07-13T12:03:50;6.60;;;1.70;;
57325;SDS011;43161;50.950;18.224;2023-07-13T12:09:03;6.80;;;1.50;;
57325;SDS011;43161;50.950;18.224;2023-07-13T12:11:39;6.70;;;2.00;;
57325;SDS011;43161;50.950;18.224;2023-07-13T12:14:06;5.80;;;2.00;;
57325;SDS011;43161;50.950;18.224;2023-07-13T12:16:35;5.40;;;1.80;;
57325;SDS011;43161;50.950;18.224;2023-07-13T12:19:02;5.20;;;1.40;;
57325;SDS011;43161;50.950;18.224;2023-07-13T12:21:36;6.70;;;1.80;;
57325;SDS011;43161;50.950;18.224;2023-07-13T12:24:04;6.80;;;1.90;;
57325;SDS011;43161;50.950;18.224;2023-07-13T12:26:31;6.20;;;1.70;;
57325;SDS011;43161;50.950;18.224;2023-07-13T12:28:58;5.30;;;1.80;;
57325;SDS011;43161;50.950;18.224;2023-07-13T12:33:59;5.60;;;1.40;;
57325;SDS011;43161;50.950;18.224;2023-07-13T12:36:26;4.30;;;1.50;;
57325;SDS011;43161;50.950;18.224;2023-07-13T12:38:56;5.50;;;1.70;;
57325;SDS011;43161;50.950;18.224;2023-07-13T12:41:23;5.40;;;1.50;;
57325;SDS011;43161;50.950;18.224;2023-07-13T12:43:49;4.50;;;1.30;;
57325;SDS011;43161;50.950;18.224;2023-07-13T12:46:19;6.10;;;1.40;;
57325;SDS011;43161;50.950;18.224;2023-07-13T12:48:53;4.90;;;1.60;;
57325;SDS011;43161;50.950;18.224;2023-07-13T12:51:21;5.30;;;1.20;;
57325;SDS011;43161;50.950;18.224;2023-07-13T12:53:49;4.60;;;1.40;;
57325;SDS011;43161;50.950;18.224;2023-07-13T12:56:26;5.50;;;1.50;;
57325;SDS011;43161;50.950;18.224;2023-07-13T12:58:56;5.60;;;1.60;;
57325;SDS011;43161;50.950;18.224;2023-07-13T13:01:26;6.10;;;1.80;;
57325;SDS011;43161;50.950;18.224;2023-07-13T13:03:54;5.20;;;1.60;;
57325;SDS011;43161;50.950;18.224;2023-07-13T13:06:22;5.20;;;1.40;;
57325;SDS011;43161;50.950;18.224;2023-07-13T13:08:52;3.30;;;1.20;;
57325;SDS011;43161;50.950;18.224;2023-07-13T13:11:19;5.10;;;1.40;;
57325;SDS011;43161;50.950;18.224;2023-07-13T13:13:46;4.80;;;1.20;;
57325;SDS011;43161;50.950;18.224;2023-07-13T13:18:58;4.90;;;1.30;;
57325;SDS011;43161;50.950;18.224;2023-07-13T13:21:27;4.50;;;1.20;;
57325;SDS011;43161;50.950;18.224;2023-07-13T13:23:53;4.10;;;1.30;;
57325;SDS011;43161;50.950;18.224;2023-07-13T13:26:19;4.20;;;1.10;;
57325;SDS011;43161;50.950;18.224;2023-07-13T13:28:46;3.70;;;1.20;;
57325;SDS011;43161;50.950;18.224;2023-07-13T13:31:14;5.60;;;1.20;;
57325;SDS011;43161;50.950;18.224;2023-07-13T13:33:42;4.90;;;1.20;;
57325;SDS011;43161;50.950;18.224;2023-07-13T13:36:16;3.90;;;1.20;;
57325;SDS011;43161;50.950;18.224;2023-07-13T13:38:43;4.80;;;1.30;;
57325;SDS011;43161;50.950;18.224;2023-07-13T13:41:10;3.80;;;1.10;;
57325;SDS011;43161;50.950;18.224;2023-07-13T13:43:38;5.40;;;1.30;;
57325;SDS011;43161;50.950;18.224;2023-07-13T13:46:11;3.90;;;1.10;;
57325;SDS011;43161;50.950;18.224;2023-07-13T13:48:40;4.60;;;1.20;;
57325;SDS011;43161;50.950;18.224;2023-07-13T13:51:11;5.00;;;1.20;;
57325;SDS011;43161;50.950;18.224;2023-07-13T13:53:39;3.50;;;1.10;;
57325;SDS011;43161;50.950;18.224;2023-07-13T13:56:05;5.50;;;1.20;;
57325;SDS011;43161;50.950;18.224;2023-07-13T13:58:30;4.30;;;1.30;;
57325;SDS011;43161;50.950;18.224;2023-07-13T14:00:56;3.60;;;1.20;;
57325;SDS011;43161;50.950;18.224;2023-07-13T14:03:23;3.50;;;1.20;;
57325;SDS011;43161;50.950;18.224;2023-07-13T14:05:49;3.70;;;1.10;;
57325;SDS011;43161;50.950;18.224;2023-07-13T14:08:16;4.90;;;1.30;;
57325;SDS011;43161;50.950;18.224;2023-07-13T14:10:46;3.80;;;1.10;;
57325;SDS011;43161;50.950;18.224;2023-07-13T14:15:57;5.50;;;1.30;;
57325;SDS011;43161;50.950;18.224;2023-07-13T14:18:24;4.10;;;1.40;;
57325;SDS011;43161;50.950;18.224;2023-07-13T14:20:50;4.80;;;1.20;;
57325;SDS011;43161;50.950;18.224;2023-07-13T14:23:17;4.40;;;1.20;;
57325;SDS011;43161;50.950;18.224;2023-07-13T14:25:46;6.30;;;1.50;;
57325;SDS011;43161;50.950;18.224;2023-07-13T14:28:33;6.80;;;1.40;;
57325;SDS011;43161;50.950;18.224;2023-07-13T14:30:58;5.10;;;1.50;;
57325;SDS011;43161;50.950;18.224;2023-07-13T14:33:23;4.20;;;1.40;;
57325;SDS011;43161;50.950;18.224;2023-07-13T14:35:50;7.60;;;1.60;;
57325;SDS011;43161;50.950;18.224;2023-07-13T14:38:17;4.20;;;1.30;;
57325;SDS011;43161;50.950;18.224;2023-07-13T14:40:44;5.80;;;1.30;;
57325;SDS011;43161;50.950;18.224;2023-07-13T14:43:10;5.40;;;1.40;;
57325;SDS011;43161;50.950;18.224;2023-07-13T14:45:38;5.70;;;1.20;;
57325;SDS011;43161;50.950;18.224;2023-07-13T14:48:13;5.30;;;1.10;;
57325;SDS011;43161;50.950;18.224;2023-07-13T14:50:44;4.70;;;1.30;;
57325;SDS011;43161;50.950;18.224;2023-07-13T14:53:12;4.90;;;1.30;;
57325;SDS011;43161;50.950;18.224;2023-07-13T14:55:38;5.30;;;1.10;;
57325;SDS011;43161;50.950;18.224;2023-07-13T14:58:04;5.60;;;1.30;;
57325;SDS011;43161;50.950;18.224;2023-07-13T15:00:29;3.90;;;1.30;;
57325;SDS011;43161;50.950;18.224;2023-07-13T15:02:57;4.50;;;1.10;;
57325;SDS011;43161;50.950;18.224;2023-07-13T15:05:24;4.90;;;1.30;;
57325;SDS011;43161;50.950;18.224;2023-07-13T15:07:52;5.50;;;1.30;;
57325;SDS011;43161;50.950;18.224;2023-07-13T15:10:20;4.50;;;1.10;;
57325;SDS011;43161;50.950;18.224;2023-07-13T15:12:50;6.60;;;1.40;;
57325;SDS011;43161;50.950;18.224;2023-07-13T15:15:17;5.70;;;1.30;;
57325;SDS011;43161;50.950;18.224;2023-07-13T15:17:44;5.80;;;1.20;;
57325;SDS011;43161;50.950;18.224;2023-07-13T15:22:57;5.20;;;1.20;;
57325;SDS011;43161;50.950;18.224;2023-07-13T15:25:24;4.70;;;1.20;;
57325;SDS011;43161;50.950;18.224;2023-07-13T15:27:52;5.70;;;1.50;;
57325;SDS011;43161;50.950;18.224;2023-07-13T15:30:19;7.00;;;1.60;;
57325;SDS011;43161;50.950;18.224;2023-07-13T15:32:45;5.20;;;1.40;;
57325;SDS011;43161;50.950;18.224;2023-07-13T15:37:40;4.00;;;1.30;;
57325;SDS011;43161;50.950;18.224;2023-07-13T15:40:05;6.20;;;1.30;;
57325;SDS011;43161;50.950;18.224;2023-07-13T15:42:33;5.80;;;1.20;;
57325;SDS011;43161;50.950;18.224;2023-07-13T15:44:58;5.50;;;1.10;;
57325;SDS011;43161;50.950;18.224;2023-07-13T15:47:26;6.60;;;1.30;;
57325;SDS011;43161;50.950;18.224;2023-07-13T15:49:52;4.50;;;1.30;;
57325;SDS011;43161;50.950;18.224;2023-07-13T15:52:20;5.90;;;1.00;;
57325;SDS011;43161;50.950;18.224;2023-07-13T15:54:48;4.30;;;1.10;;
57325;SDS011;43161;50.950;18.224;2023-07-13T15:57:14;6.20;;;1.50;;
57325;SDS011;43161;50.950;18.224;2023-07-13T15:59:41;7.40;;;2.30;;